createdAt,value
2023-03-31T00:01:07.937Z,11.70
2023-03-31T00:02:41.835Z,11.70
2023-03-31T00:04:14.841Z,11.80
2023-03-31T00:05:48.167Z,11.70
2023-03-31T00:07:22.048Z,11.70
2023-03-31T00:08:55.308Z,11.70
2023-03-31T00:10:28.657Z,11.70
2023-03-31T00:12:01.374Z,11.70
2023-03-31T00:13:36.607Z,11.80
2023-03-31T00:15:09.906Z,11.80
2023-03-31T00:16:42.994Z,11.70
2023-03-31T00:18:14.779Z,11.80
2023-03-31T00:19:49.738Z,11.80
2023-03-31T00:21:29.476Z,11.80
2023-03-31T00:23:02.565Z,11.80
2023-03-31T00:24:36.093Z,11.80
2023-03-31T00:26:08.132Z,11.80
2023-03-31T00:27:44.141Z,11.80
2023-03-31T00:29:18.251Z,11.70
2023-03-31T00:30:51.629Z,11.70
2023-03-31T00:32:24.427Z,11.70
2023-03-31T00:33:57.905Z,11.70
2023-03-31T00:35:30.783Z,11.70
2023-03-31T00:37:03.748Z,11.70
2023-03-31T00:38:36.944Z,11.70
2023-03-31T00:40:10.779Z,11.70
2023-03-31T00:41:43.982Z,11.80
2023-03-31T00:43:29.813Z,11.80
2023-03-31T00:45:27.186Z,11.80
2023-03-31T00:47:06.215Z,11.80
2023-03-31T00:48:38.316Z,11.80
2023-03-31T00:50:19.118Z,11.80
2023-03-31T00:51:53.864Z,11.80
2023-03-31T00:53:32.092Z,11.80
2023-03-31T00:55:08.833Z,11.80
2023-03-31T00:56:44.405Z,11.80
2023-03-31T00:58:20.139Z,11.80
2023-03-31T00:59:57.755Z,11.80
2023-03-31T01:01:32.628Z,11.80
2023-03-31T01:03:10.430Z,11.80
2023-03-31T01:04:49.858Z,11.80
2023-03-31T01:06:23.626Z,11.80
2023-03-31T01:07:57.908Z,11.80
2023-03-31T01:09:34.940Z,11.80
2023-03-31T01:11:11.292Z,11.80
2023-03-31T01:12:48.584Z,11.70
2023-03-31T01:14:21.527Z,11.70
2023-03-31T01:15:54.975Z,11.70
2023-03-31T01:17:29.832Z,11.70
2023-03-31T01:19:03.090Z,11.70
2023-03-31T01:20:44.557Z,11.70
2023-03-31T01:22:46.807Z,11.70
2023-03-31T01:24:41.047Z,11.70
2023-03-31T01:26:38.843Z,11.60
2023-03-31T01:28:24.255Z,11.70
2023-03-31T01:30:20.590Z,11.70
2023-03-31T01:32:19.724Z,11.70
2023-03-31T01:34:25.070Z,11.70
2023-03-31T01:36:43.040Z,11.70
2023-03-31T01:38:44.285Z,11.70
2023-03-31T01:40:49.652Z,11.70
2023-03-31T01:42:25.792Z,11.70
2023-03-31T01:44:09.829Z,11.70
2023-03-31T01:45:54.767Z,11.60
2023-03-31T01:47:34.565Z,11.70
2023-03-31T01:49:18.670Z,11.60
2023-03-31T01:50:58.083Z,11.60
2023-03-31T01:52:39.073Z,11.60
2023-03-31T01:54:20.510Z,11.60
2023-03-31T01:56:03.213Z,11.60
2023-03-31T01:57:38.787Z,11.60
2023-03-31T01:59:15.372Z,11.60
2023-03-31T02:00:56.889Z,11.50
2023-03-31T02:02:33.503Z,11.50
2023-03-31T02:04:14.551Z,11.50
2023-03-31T02:05:52.500Z,11.50
2023-03-31T02:07:31.985Z,11.50
2023-03-31T02:09:10.783Z,11.50
2023-03-31T02:10:46.006Z,11.50
2023-03-31T02:12:22.309Z,11.50
2023-03-31T02:13:57.700Z,11.50
2023-03-31T02:15:32.503Z,11.50
2023-03-31T02:17:08.203Z,11.50
2023-03-31T02:18:41.651Z,11.50
2023-03-31T02:20:18.805Z,11.50
2023-03-31T02:21:52.561Z,11.50
2023-03-31T02:23:29.567Z,11.50
2023-03-31T02:25:04.120Z,11.50
2023-03-31T02:26:41.177Z,11.50
2023-03-31T02:28:20.349Z,11.50
2023-03-31T02:29:53.534Z,11.50
2023-03-31T02:31:31.203Z,11.50
2023-03-31T02:33:05.309Z,11.50
2023-03-31T02:34:38.648Z,11.50
2023-03-31T02:36:12.267Z,11.50
2023-03-31T02:37:46.354Z,11.50
2023-03-31T02:39:24.194Z,11.40
2023-03-31T02:40:56.947Z,11.40
2023-03-31T02:42:29.949Z,11.40
2023-03-31T02:44:04.141Z,11.40
2023-03-31T02:45:47.966Z,11.40
2023-03-31T02:47:22.665Z,11.40
2023-03-31T02:48:58.464Z,11.40
2023-03-31T02:50:39.497Z,11.40
2023-03-31T02:52:38.096Z,11.40
2023-03-31T02:54:27.601Z,11.40
2023-03-31T02:56:13.098Z,11.40
2023-03-31T02:58:20.191Z,11.40
2023-03-31T03:00:09.300Z,11.40
2023-03-31T03:01:54.683Z,11.40
2023-03-31T03:03:39.404Z,11.40
2023-03-31T03:05:23.345Z,11.40
2023-03-31T03:07:06.630Z,11.40
2023-03-31T03:08:55.448Z,11.40
2023-03-31T03:10:36.226Z,11.40
2023-03-31T03:12:16.848Z,11.40
2023-03-31T03:13:53.314Z,11.40
2023-03-31T03:15:31.895Z,11.40
2023-03-31T03:17:08.325Z,11.40
2023-03-31T03:18:41.242Z,11.40
2023-03-31T03:20:16.197Z,11.50
2023-03-31T03:21:49.167Z,11.40
2023-03-31T03:23:22.617Z,11.40
2023-03-31T03:24:55.404Z,11.40
2023-03-31T03:26:28.778Z,11.40
2023-03-31T03:28:01.629Z,11.40
2023-03-31T03:29:33.389Z,11.40
2023-03-31T03:31:09.338Z,11.40
2023-03-31T03:32:43.043Z,11.40
2023-03-31T03:34:16.638Z,11.40
2023-03-31T03:35:49.409Z,11.40
2023-03-31T03:37:22.232Z,11.40
2023-03-31T03:38:54.952Z,11.40
2023-03-31T03:40:27.665Z,11.40
2023-03-31T03:42:00.861Z,11.40
2023-03-31T03:43:33.630Z,11.40
2023-03-31T03:45:07.493Z,11.40
2023-03-31T03:46:41.889Z,11.40
2023-03-31T03:48:14.765Z,11.40
2023-03-31T03:49:49.006Z,11.40
2023-03-31T03:51:21.715Z,11.40
2023-03-31T03:52:54.478Z,11.40
2023-03-31T03:54:27.209Z,11.40
2023-03-31T03:56:00.142Z,11.40
2023-03-31T03:57:32.860Z,11.40
2023-03-31T03:59:05.579Z,11.40
2023-03-31T04:00:38.357Z,11.40
2023-03-31T04:02:11.723Z,11.40
2023-03-31T04:03:44.508Z,11.40
2023-03-31T04:05:17.334Z,11.40
2023-03-31T04:06:49.130Z,11.30
2023-03-31T04:08:21.957Z,11.30
2023-03-31T04:09:54.728Z,11.30
2023-03-31T04:11:26.527Z,11.30
2023-03-31T04:12:59.340Z,11.30
2023-03-31T04:14:32.111Z,11.30
2023-03-31T04:16:05.178Z,11.30
2023-03-31T04:17:39.876Z,11.30
2023-03-31T04:19:13.262Z,11.40
2023-03-31T04:20:46.332Z,11.40
2023-03-31T04:22:20.569Z,11.30
2023-03-31T04:23:58.642Z,11.30
2023-03-31T04:25:31.376Z,11.30
2023-03-31T04:27:07.372Z,11.30
2023-03-31T04:28:42.836Z,11.30
2023-03-31T04:30:22.785Z,11.30
2023-03-31T04:31:58.594Z,11.30
2023-03-31T04:33:34.036Z,11.30
2023-03-31T04:35:07.149Z,11.20
2023-03-31T04:36:42.541Z,11.20
2023-03-31T04:38:18.500Z,11.20
2023-03-31T04:39:54.506Z,11.20
2023-03-31T04:41:28.451Z,11.20
2023-03-31T04:43:01.141Z,11.20
2023-03-31T04:44:33.889Z,11.20
2023-03-31T04:46:06.389Z,11.20
2023-03-31T04:47:39.489Z,11.20
2023-03-31T04:49:12.800Z,11.20
2023-03-31T04:50:47.702Z,11.20
2023-03-31T04:52:20.453Z,11.20
2023-03-31T04:53:53.205Z,11.20
2023-03-31T04:55:26.137Z,11.20
2023-03-31T04:56:58.905Z,11.20
2023-03-31T04:58:31.660Z,11.20
2023-03-31T05:00:07.275Z,11.20
2023-03-31T05:01:45.414Z,11.10
2023-03-31T05:03:19.284Z,11.20
2023-03-31T05:04:53.686Z,11.10
2023-03-31T05:06:26.852Z,11.10
2023-03-31T05:07:59.623Z,11.00
2023-03-31T05:09:34.657Z,11.10
2023-03-31T05:11:07.810Z,11.00
2023-03-31T05:12:41.083Z,11.00
2023-03-31T05:14:13.916Z,11.00
2023-03-31T05:15:50.588Z,11.00
2023-03-31T05:17:23.369Z,11.00
2023-03-31T05:18:56.247Z,11.00
2023-03-31T05:20:30.709Z,10.90
2023-03-31T05:22:03.476Z,10.90
2023-03-31T05:23:35.240Z,11.00
2023-03-31T05:25:11.924Z,10.90
2023-03-31T05:26:48.340Z,11.00
2023-03-31T05:28:21.741Z,11.00
2023-03-31T05:29:54.453Z,11.00
2023-03-31T05:31:27.238Z,11.00
2023-03-31T05:33:00.059Z,11.00
2023-03-31T05:34:32.846Z,11.00
2023-03-31T05:36:08.430Z,11.00
2023-03-31T05:37:41.513Z,10.90
2023-03-31T05:39:14.790Z,10.90
2023-03-31T05:40:47.524Z,10.90
2023-03-31T05:42:21.095Z,10.90
2023-03-31T05:43:53.810Z,10.90
2023-03-31T05:45:26.576Z,10.90
2023-03-31T05:46:59.405Z,10.80
2023-03-31T05:48:32.151Z,10.80
2023-03-31T05:50:08.743Z,10.80
2023-03-31T05:51:43.027Z,10.80
2023-03-31T05:53:15.782Z,10.80
2023-03-31T05:54:48.557Z,10.70
2023-03-31T05:56:22.089Z,10.70
2023-03-31T05:57:54.861Z,10.70
2023-03-31T05:59:27.719Z,10.70
2023-03-31T06:01:07.301Z,10.70
2023-03-31T06:02:41.016Z,10.60
2023-03-31T06:04:13.924Z,10.60
2023-03-31T06:05:49.083Z,10.60
2023-03-31T06:07:24.971Z,10.60
2023-03-31T06:08:57.830Z,10.60
2023-03-31T06:10:30.677Z,10.50
2023-03-31T06:12:03.485Z,10.50
2023-03-31T06:13:36.601Z,10.50
2023-03-31T06:15:10.027Z,10.50
2023-03-31T06:16:42.786Z,10.50
2023-03-31T06:18:14.587Z,10.50
2023-03-31T06:19:47.342Z,10.50
2023-03-31T06:21:21.608Z,10.50
2023-03-31T06:22:55.966Z,10.50
2023-03-31T06:24:28.983Z,10.40
2023-03-31T06:26:03.470Z,10.40
2023-03-31T06:27:36.201Z,10.40
2023-03-31T06:29:08.905Z,10.50
2023-03-31T06:30:41.695Z,10.50
2023-03-31T06:32:14.410Z,10.40
2023-03-31T06:33:47.696Z,10.50
2023-03-31T06:35:20.399Z,10.50
2023-03-31T06:36:53.543Z,10.50
2023-03-31T06:38:28.081Z,10.50
2023-03-31T06:40:00.848Z,10.50
2023-03-31T06:41:33.616Z,10.50
2023-03-31T06:43:06.367Z,10.50
2023-03-31T06:44:39.305Z,10.50
2023-03-31T06:46:12.570Z,10.50
2023-03-31T06:47:45.393Z,10.50
2023-03-31T06:49:19.213Z,10.50
2023-03-31T06:50:52.402Z,10.50
2023-03-31T06:52:25.175Z,10.50
2023-03-31T06:53:59.262Z,10.50
2023-03-31T06:55:33.760Z,10.50
2023-03-31T06:57:06.631Z,10.50
2023-03-31T06:58:39.516Z,10.50
2023-03-31T07:00:13.835Z,10.50
2023-03-31T07:01:48.812Z,10.50
2023-03-31T07:03:24.985Z,10.50
2023-03-31T07:04:58.181Z,10.50
2023-03-31T07:06:30.892Z,10.50
2023-03-31T07:08:03.651Z,10.50
2023-03-31T07:09:37.932Z,10.60
2023-03-31T07:11:11.379Z,10.50
2023-03-31T07:12:44.575Z,10.50
2023-03-31T07:14:17.300Z,10.50
2023-03-31T07:15:50.686Z,10.60
2023-03-31T07:17:25.383Z,10.70
2023-03-31T07:18:59.539Z,10.70
2023-03-31T07:20:32.745Z,10.70
2023-03-31T07:22:06.128Z,10.70
2023-03-31T07:23:39.025Z,10.70
2023-03-31T07:25:15.794Z,10.80
2023-03-31T07:26:48.472Z,10.80
2023-03-31T07:28:21.178Z,10.80
2023-03-31T07:29:54.120Z,10.80
2023-03-31T07:31:27.680Z,10.80
2023-03-31T07:33:01.047Z,10.90
2023-03-31T07:34:35.535Z,10.80
2023-03-31T07:36:13.917Z,10.90
2023-03-31T07:37:48.772Z,10.90
2023-03-31T07:39:21.629Z,11.00
2023-03-31T07:41:07.610Z,11.00
2023-03-31T07:42:41.587Z,11.00
2023-03-31T07:44:15.892Z,11.10
2023-03-31T07:45:49.143Z,11.10
2023-03-31T07:47:21.907Z,11.10
2023-03-31T07:48:57.027Z,11.20
2023-03-31T07:50:29.775Z,11.30
2023-03-31T07:52:03.376Z,11.40
2023-03-31T07:53:36.541Z,11.40
2023-03-31T07:55:10.191Z,11.50
2023-03-31T07:56:44.276Z,11.60
2023-03-31T07:58:17.024Z,11.70
2023-03-31T07:59:49.760Z,11.80
2023-03-31T08:01:25.997Z,11.80
2023-03-31T08:02:59.198Z,11.80
2023-03-31T08:04:31.965Z,11.80
2023-03-31T08:06:05.176Z,11.90
2023-03-31T08:07:39.098Z,11.90
2023-03-31T08:09:11.841Z,12.00
2023-03-31T08:10:44.824Z,12.10
2023-03-31T08:12:18.994Z,12.10
2023-03-31T08:13:51.877Z,12.10
2023-03-31T08:15:24.671Z,12.20
2023-03-31T08:16:57.893Z,12.10
2023-03-31T08:18:31.025Z,12.10
2023-03-31T08:20:07.965Z,12.10
2023-03-31T08:21:41.142Z,12.10
2023-03-31T08:23:14.577Z,12.10
2023-03-31T08:24:48.366Z,12.10
2023-03-31T08:26:21.836Z,12.00
2023-03-31T08:27:56.878Z,12.00
2023-03-31T08:29:29.648Z,12.00
2023-03-31T08:31:05.832Z,12.00
2023-03-31T08:32:39.065Z,12.00
2023-03-31T08:34:11.832Z,12.00
2023-03-31T08:35:44.700Z,12.00
2023-03-31T08:37:17.505Z,12.10
2023-03-31T08:38:50.531Z,12.10
2023-03-31T08:40:26.689Z,12.30
2023-03-31T08:42:02.675Z,12.50
2023-03-31T08:43:44.948Z,12.80
2023-03-31T08:45:22.508Z,13.10
2023-03-31T08:46:57.449Z,13.40
2023-03-31T08:48:32.635Z,13.70
2023-03-31T08:50:11.412Z,14.00
2023-03-31T08:51:48.850Z,14.30
2023-03-31T08:53:27.051Z,14.40
2023-03-31T08:55:02.461Z,14.40
2023-03-31T08:56:39.001Z,14.40
2023-03-31T08:58:25.463Z,14.30
2023-03-31T09:00:06.810Z,14.20
2023-03-31T09:01:55.266Z,14.10
2023-03-31T09:03:35.470Z,14.00
2023-03-31T09:05:56.837Z,14.00
2023-03-31T09:07:42.014Z,13.90
2023-03-31T09:09:26.825Z,13.80
2023-03-31T09:11:06.419Z,13.80
2023-03-31T09:12:47.511Z,13.80
2023-03-31T09:14:28.557Z,13.70
2023-03-31T09:16:09.821Z,13.70
2023-03-31T09:17:46.794Z,13.70
2023-03-31T09:19:26.296Z,13.60
2023-03-31T09:21:08.509Z,13.70
2023-03-31T09:22:45.804Z,13.70
2023-03-31T09:24:21.964Z,13.70
2023-03-31T09:25:55.812Z,13.80
2023-03-31T09:27:31.323Z,13.80
2023-03-31T09:29:08.729Z,13.80
2023-03-31T09:30:43.169Z,13.70
2023-03-31T09:32:19.442Z,13.80
2023-03-31T09:33:56.923Z,13.80
2023-03-31T09:35:33.398Z,13.70
2023-03-31T09:37:06.378Z,13.70
2023-03-31T09:38:39.542Z,13.70
2023-03-31T09:40:18.487Z,13.70
2023-03-31T09:41:53.996Z,13.60
2023-03-31T09:43:28.695Z,13.70
2023-03-31T09:45:01.481Z,13.70
2023-03-31T09:46:37.398Z,13.60
2023-03-31T09:48:15.923Z,13.70
2023-03-31T09:49:54.010Z,13.60
2023-03-31T09:51:32.489Z,13.60
2023-03-31T09:53:05.997Z,13.60
2023-03-31T09:54:42.558Z,13.60
2023-03-31T09:56:32.218Z,13.60
2023-03-31T09:58:08.305Z,13.60
2023-03-31T09:59:41.665Z,13.50
2023-03-31T10:01:16.214Z,13.50
2023-03-31T10:02:51.522Z,13.50
2023-03-31T10:04:28.960Z,13.50
2023-03-31T10:06:01.919Z,13.50
2023-03-31T10:07:35.824Z,13.50
2023-03-31T10:09:11.253Z,13.50
2023-03-31T10:10:47.344Z,13.50
2023-03-31T10:12:24.295Z,13.30
2023-03-31T10:14:04.552Z,13.20
2023-03-31T10:15:40.381Z,13.00
2023-03-31T10:17:16.858Z,12.90
2023-03-31T10:18:50.402Z,12.80
2023-03-31T10:20:34.159Z,12.70
2023-03-31T10:22:16.200Z,12.50
2023-03-31T10:23:50.087Z,12.40
2023-03-31T10:25:28.239Z,12.20
2023-03-31T10:27:00.991Z,12.10
2023-03-31T10:28:35.897Z,12.10
2023-03-31T10:30:12.239Z,12.10
2023-03-31T10:31:45.085Z,12.10
2023-03-31T10:33:22.997Z,12.10
2023-03-31T10:34:57.473Z,12.20
2023-03-31T10:36:32.002Z,12.20
2023-03-31T10:38:07.177Z,12.30
2023-03-31T10:39:39.920Z,12.30
2023-03-31T10:41:13.374Z,12.30
2023-03-31T10:42:48.570Z,12.40
2023-03-31T10:44:37.052Z,12.40
2023-03-31T10:46:10.687Z,12.50
2023-03-31T10:47:43.744Z,12.60
2023-03-31T10:49:25.177Z,12.60
2023-03-31T10:51:01.365Z,12.70
2023-03-31T10:52:46.897Z,12.80
2023-03-31T10:54:19.967Z,12.90
2023-03-31T10:56:09.065Z,13.10
2023-03-31T10:57:50.918Z,13.20
2023-03-31T10:59:36.265Z,13.40
2023-03-31T11:01:21.446Z,13.60
2023-03-31T11:03:15.876Z,13.80
2023-03-31T11:04:58.218Z,14.00
2023-03-31T11:06:40.437Z,14.20
2023-03-31T11:08:31.850Z,14.30
2023-03-31T11:10:22.161Z,14.50
2023-03-31T11:12:03.270Z,14.60
2023-03-31T11:13:42.109Z,14.80
2023-03-31T11:15:23.008Z,14.90
2023-03-31T11:17:01.803Z,15.00
2023-03-31T11:18:43.878Z,15.10
2023-03-31T11:20:22.014Z,15.10
2023-03-31T11:22:04.132Z,15.30
2023-03-31T11:23:42.837Z,15.30
2023-03-31T11:25:24.952Z,15.40
2023-03-31T11:27:07.921Z,15.40
2023-03-31T11:29:03.914Z,15.50
2023-03-31T11:30:41.595Z,15.50
2023-03-31T11:32:33.238Z,15.60
2023-03-31T11:34:18.344Z,15.60
2023-03-31T11:36:05.175Z,15.60
2023-03-31T11:37:55.801Z,15.50
2023-03-31T11:39:41.844Z,15.50
2023-03-31T11:41:18.550Z,15.50
2023-03-31T11:42:54.818Z,15.40
2023-03-31T11:44:31.759Z,15.40
2023-03-31T11:46:09.605Z,15.40
2023-03-31T11:47:47.242Z,15.40
2023-03-31T11:49:23.490Z,15.40
2023-03-31T11:50:57.598Z,15.30
2023-03-31T11:52:33.594Z,15.30
2023-03-31T11:54:12.093Z,15.30
2023-03-31T11:55:47.754Z,15.20
2023-03-31T11:57:26.823Z,15.30
2023-03-31T11:59:01.677Z,15.20
2023-03-31T12:00:39.378Z,15.20
2023-03-31T12:02:17.604Z,15.30
2023-03-31T12:03:58.221Z,15.30
2023-03-31T12:05:34.899Z,15.30
2023-03-31T12:07:20.311Z,15.30
2023-03-31T12:09:04.968Z,15.30
2023-03-31T12:10:39.650Z,15.30
2023-03-31T12:12:20.482Z,15.30
2023-03-31T12:13:56.908Z,15.30
2023-03-31T12:15:35.161Z,15.30
2023-03-31T12:17:13.161Z,15.30
2023-03-31T12:18:57.619Z,15.30
2023-03-31T12:20:34.325Z,15.30
2023-03-31T12:22:12.957Z,15.30
2023-03-31T12:23:46.557Z,15.30
2023-03-31T12:25:26.038Z,15.30
2023-03-31T12:27:09.242Z,15.30
2023-03-31T12:28:45.227Z,15.30
2023-03-31T12:30:23.951Z,15.20
2023-03-31T12:31:59.613Z,15.20
2023-03-31T12:33:34.833Z,15.20
2023-03-31T12:35:13.857Z,15.30
2023-03-31T12:37:01.851Z,15.30
2023-03-31T12:38:51.703Z,15.40
2023-03-31T12:40:34.043Z,15.50
2023-03-31T12:42:38.964Z,15.50
2023-03-31T12:44:41.490Z,15.60
2023-03-31T12:46:29.544Z,15.70
2023-03-31T12:48:33.675Z,15.70
2023-03-31T12:50:26.973Z,15.80
2023-03-31T12:52:04.996Z,15.80
2023-03-31T12:53:50.362Z,15.80
2023-03-31T12:55:33.970Z,15.80
2023-03-31T12:57:17.509Z,15.90
2023-03-31T12:58:50.481Z,15.80
2023-03-31T13:00:27.419Z,15.70
2023-03-31T13:02:22.413Z,15.70
2023-03-31T13:04:11.189Z,15.60
2023-03-31T13:05:47.538Z,15.50
2023-03-31T13:07:40.394Z,15.30
2023-03-31T13:09:44.220Z,15.10
2023-03-31T13:11:17.560Z,14.80
2023-03-31T13:13:01.345Z,14.60
2023-03-31T13:14:38.607Z,14.40
2023-03-31T13:16:19.106Z,14.10
2023-03-31T13:17:58.993Z,13.90
2023-03-31T13:19:34.253Z,13.70
2023-03-31T13:21:09.135Z,13.50
2023-03-31T13:22:48.132Z,13.40
2023-03-31T13:24:23.431Z,13.40
2023-03-31T13:25:57.266Z,13.40
2023-03-31T13:27:33.200Z,13.30
2023-03-31T13:29:39.109Z,13.30
2023-03-31T13:31:14.940Z,13.30
2023-03-31T13:33:05.377Z,13.30
2023-03-31T13:34:42.612Z,13.30
2023-03-31T13:36:41.093Z,13.30
2023-03-31T13:38:25.197Z,13.30
2023-03-31T13:40:25.697Z,13.30
2023-03-31T13:42:09.664Z,13.30
2023-03-31T13:43:58.593Z,13.40
2023-03-31T13:45:55.339Z,13.40
2023-03-31T13:47:54.265Z,13.50
2023-03-31T13:49:49.358Z,13.60
2023-03-31T13:51:32.820Z,13.60
2023-03-31T13:53:21.234Z,13.70
2023-03-31T13:55:37.193Z,13.80
2023-03-31T13:57:29.145Z,13.90
2023-03-31T13:59:23.843Z,14.00
2023-03-31T14:01:22.682Z,14.10
2023-03-31T14:03:17.215Z,14.10
2023-03-31T14:05:13.970Z,14.20
2023-03-31T14:06:53.134Z,14.30
2023-03-31T14:08:38.034Z,14.30
2023-03-31T14:10:23.725Z,14.30
2023-03-31T14:11:58.257Z,14.40
2023-03-31T14:13:31.000Z,14.40
2023-03-31T14:15:04.745Z,14.40
2023-03-31T14:16:40.365Z,14.50
2023-03-31T14:18:19.256Z,14.50
2023-03-31T14:20:08.649Z,14.40
2023-03-31T14:21:47.852Z,14.50
2023-03-31T14:23:38.662Z,14.40
2023-03-31T14:25:20.359Z,14.40
2023-03-31T14:27:04.394Z,14.40
2023-03-31T14:29:01.139Z,14.30
2023-03-31T14:30:43.376Z,14.40
2023-03-31T14:32:28.915Z,14.50
2023-03-31T14:34:36.667Z,14.50
2023-03-31T14:36:19.188Z,14.60
2023-03-31T14:37:52.260Z,14.60
2023-03-31T14:39:28.915Z,14.70
2023-03-31T14:41:01.854Z,14.70
2023-03-31T14:42:39.870Z,14.70
2023-03-31T14:44:16.397Z,14.70
2023-03-31T14:45:58.295Z,14.70
2023-03-31T14:47:31.817Z,14.60
2023-03-31T14:49:20.043Z,14.50
2023-03-31T14:50:58.596Z,14.50
2023-03-31T14:52:33.503Z,14.30
2023-03-31T14:54:06.666Z,14.20
2023-03-31T14:55:57.475Z,14.10
2023-03-31T14:57:34.599Z,14.00
2023-03-31T14:59:08.757Z,14.00
2023-03-31T15:00:42.388Z,13.90
2023-03-31T15:02:18.665Z,13.80
2023-03-31T15:03:53.770Z,13.80
2023-03-31T15:05:30.933Z,13.70
2023-03-31T15:07:04.929Z,13.70
2023-03-31T15:08:38.684Z,13.70
2023-03-31T15:10:19.724Z,13.70
2023-03-31T15:11:57.718Z,13.60
2023-03-31T15:13:35.863Z,13.70
2023-03-31T15:15:12.133Z,13.70
2023-03-31T15:16:47.173Z,13.80
2023-03-31T15:18:20.280Z,13.80
2023-03-31T15:19:57.606Z,13.80
2023-03-31T15:21:37.708Z,13.90
2023-03-31T15:23:24.669Z,13.90
2023-03-31T15:24:58.513Z,13.90
2023-03-31T15:26:40.530Z,14.00
2023-03-31T15:28:18.416Z,14.00
2023-03-31T15:29:53.884Z,14.00
2023-03-31T15:31:28.090Z,14.00
2023-03-31T15:33:11.685Z,14.00
2023-03-31T15:34:52.620Z,14.00
2023-03-31T15:36:27.820Z,14.00
2023-03-31T15:38:05.340Z,14.00
2023-03-31T15:39:39.282Z,13.90
2023-03-31T15:41:14.126Z,13.90
2023-03-31T15:43:01.478Z,13.90
2023-03-31T15:44:46.305Z,14.00
2023-03-31T15:46:25.445Z,13.90
2023-03-31T15:48:02.126Z,14.00
2023-03-31T15:49:35.552Z,13.90
2023-03-31T15:51:19.486Z,13.90
2023-03-31T15:52:54.128Z,13.90
2023-03-31T15:54:37.597Z,13.90
2023-03-31T15:56:27.328Z,13.90
2023-03-31T15:58:01.755Z,13.90
2023-03-31T15:59:54.580Z,13.90
2023-03-31T16:01:43.940Z,13.90
2023-03-31T16:03:20.269Z,13.90
2023-03-31T16:04:58.053Z,13.90
2023-03-31T16:06:40.028Z,13.90
2023-03-31T16:08:16.300Z,13.90
2023-03-31T16:09:54.013Z,13.90
2023-03-31T16:11:29.782Z,13.80
2023-03-31T16:13:05.721Z,13.80
2023-03-31T16:14:45.803Z,13.80
2023-03-31T16:16:21.783Z,13.80
2023-03-31T16:17:57.556Z,13.80
2023-03-31T16:19:33.946Z,13.80
2023-03-31T16:21:09.430Z,13.70
2023-03-31T16:22:45.666Z,13.70
2023-03-31T16:24:18.438Z,13.70
2023-03-31T16:25:53.029Z,13.80
2023-03-31T16:27:26.162Z,13.70
2023-03-31T16:28:59.088Z,13.70
2023-03-31T16:30:36.309Z,13.70
2023-03-31T16:32:12.271Z,13.70
2023-03-31T16:33:55.306Z,13.70
2023-03-31T16:35:32.630Z,13.60
2023-03-31T16:37:11.404Z,13.60
2023-03-31T16:38:44.440Z,13.60
2023-03-31T16:40:17.200Z,13.60
2023-03-31T16:41:51.316Z,13.50
2023-03-31T16:43:26.331Z,13.50
2023-03-31T16:45:10.116Z,13.50
2023-03-31T16:46:46.985Z,13.40
2023-03-31T16:48:21.665Z,13.40
2023-03-31T16:49:54.467Z,13.40
2023-03-31T16:51:27.136Z,13.40
2023-03-31T16:53:00.936Z,13.40
2023-03-31T16:54:33.664Z,13.40
2023-03-31T16:56:08.737Z,13.40
2023-03-31T16:57:42.960Z,13.30
2023-03-31T16:59:16.003Z,13.30
2023-03-31T17:00:48.836Z,13.30
2023-03-31T17:02:21.560Z,13.30
2023-03-31T17:03:54.867Z,13.20
2023-03-31T17:05:28.098Z,13.30
2023-03-31T17:07:00.798Z,13.30
2023-03-31T17:08:33.574Z,13.20
2023-03-31T17:10:07.528Z,13.20
2023-03-31T17:11:41.057Z,13.20
2023-03-31T17:13:15.500Z,13.20
2023-03-31T17:14:48.336Z,13.20
2023-03-31T17:16:29.811Z,13.20
2023-03-31T17:18:13.874Z,13.20
2023-03-31T17:19:47.088Z,13.20
2023-03-31T17:21:20.172Z,13.20
2023-03-31T17:22:53.142Z,13.20
2023-03-31T17:24:25.885Z,13.20
2023-03-31T17:25:58.610Z,13.10
2023-03-31T17:27:32.088Z,13.10
2023-03-31T17:29:06.352Z,13.10
2023-03-31T17:30:40.150Z,13.10
2023-03-31T17:32:14.813Z,13.00
2023-03-31T17:33:48.277Z,13.00
2023-03-31T17:35:22.470Z,13.00
2023-03-31T17:36:57.017Z,13.00
2023-03-31T17:38:29.948Z,13.00
2023-03-31T17:40:02.691Z,13.00
2023-03-31T17:41:35.837Z,13.00
2023-03-31T17:43:08.711Z,12.90
2023-03-31T17:44:42.770Z,12.90
2023-03-31T17:46:17.327Z,12.90
2023-03-31T17:47:50.254Z,12.90
2023-03-31T17:49:23.782Z,12.90
2023-03-31T17:50:56.556Z,12.90
2023-03-31T17:52:29.430Z,12.80
2023-03-31T17:54:03.209Z,12.80
2023-03-31T17:55:38.205Z,12.80
2023-03-31T17:57:11.149Z,12.70
2023-03-31T17:58:44.115Z,12.70
2023-03-31T18:00:19.522Z,12.50
2023-03-31T18:01:52.344Z,12.50
2023-03-31T18:03:25.461Z,12.50
2023-03-31T18:04:58.251Z,12.40
2023-03-31T18:06:31.755Z,12.40
2023-03-31T18:08:04.555Z,12.40
2023-03-31T18:09:37.617Z,12.30
2023-03-31T18:11:11.479Z,12.30
2023-03-31T18:12:44.539Z,12.30
2023-03-31T18:14:17.266Z,12.20
2023-03-31T18:15:52.986Z,12.20
2023-03-31T18:17:26.049Z,12.20
2023-03-31T18:18:59.114Z,12.20
2023-03-31T18:20:32.636Z,12.30
2023-03-31T18:22:05.898Z,12.10
2023-03-31T18:23:39.192Z,12.10
2023-03-31T18:25:12.821Z,12.10
2023-03-31T18:26:46.700Z,12.00
2023-03-31T18:28:20.697Z,12.00
2023-03-31T18:29:53.661Z,12.00
2023-03-31T18:31:27.900Z,11.90
2023-03-31T18:33:01.064Z,11.90
2023-03-31T18:34:36.536Z,11.90
2023-03-31T18:36:15.645Z,11.90
2023-03-31T18:37:48.564Z,11.90
2023-03-31T18:39:21.303Z,11.90
2023-03-31T18:40:54.786Z,11.90
2023-03-31T18:42:27.488Z,11.90
2023-03-31T18:44:00.333Z,11.80
2023-03-31T18:45:33.564Z,11.80
2023-03-31T18:47:07.829Z,11.80
2023-03-31T18:48:42.122Z,11.80
2023-03-31T18:50:15.197Z,11.80
2023-03-31T18:51:47.915Z,11.80
2023-03-31T18:53:21.354Z,11.70
2023-03-31T18:54:54.069Z,11.70
2023-03-31T18:56:27.015Z,11.70
2023-03-31T18:57:59.721Z,11.70
2023-03-31T18:59:32.499Z,11.70
2023-03-31T19:01:05.653Z,11.70
2023-03-31T19:02:40.013Z,11.70
2023-03-31T19:04:12.952Z,11.60
2023-03-31T19:05:46.027Z,11.60
2023-03-31T19:07:18.758Z,11.60
2023-03-31T19:08:51.936Z,11.60
2023-03-31T19:10:24.677Z,11.60
2023-03-31T19:11:58.185Z,11.60
2023-03-31T19:13:30.899Z,11.60
2023-03-31T19:15:03.793Z,11.60
2023-03-31T19:16:42.062Z,11.60
2023-03-31T19:18:16.461Z,11.60
2023-03-31T19:19:49.598Z,11.60
2023-03-31T19:21:22.917Z,11.60
2023-03-31T19:22:55.862Z,11.50
2023-03-31T19:24:28.864Z,11.50
2023-03-31T19:26:02.881Z,11.60
2023-03-31T19:27:35.600Z,11.60
2023-03-31T19:29:08.373Z,11.50
2023-03-31T19:30:41.125Z,11.50
2023-03-31T19:32:14.011Z,11.50
2023-03-31T19:33:48.228Z,11.60
2023-03-31T19:35:21.206Z,11.60
2023-03-31T19:36:54.129Z,11.50
2023-03-31T19:38:27.113Z,11.50
2023-03-31T19:40:00.021Z,11.50
2023-03-31T19:41:32.735Z,11.50
2023-03-31T19:43:06.076Z,11.40
2023-03-31T19:44:38.938Z,11.40
2023-03-31T19:46:11.801Z,11.50
2023-03-31T19:47:44.619Z,11.40
2023-03-31T19:49:19.833Z,11.40
2023-03-31T19:50:54.334Z,11.40
2023-03-31T19:52:28.282Z,11.40
2023-03-31T19:54:01.020Z,11.40
2023-03-31T19:55:37.315Z,11.40
2023-03-31T19:57:10.135Z,11.40
2023-03-31T19:58:43.236Z,11.30
2023-03-31T20:00:18.296Z,11.30
2023-03-31T20:01:51.548Z,11.30
2023-03-31T20:03:26.555Z,11.30
2023-03-31T20:05:00.981Z,11.30
2023-03-31T20:06:36.943Z,11.30
2023-03-31T20:08:09.974Z,11.30
2023-03-31T20:09:42.910Z,11.20
2023-03-31T20:11:17.082Z,11.20
2023-03-31T20:12:51.536Z,11.20
2023-03-31T20:14:24.322Z,11.20
2023-03-31T20:16:01.671Z,11.20
2023-03-31T20:17:34.720Z,11.20
2023-03-31T20:19:07.971Z,11.20
2023-03-31T20:20:42.109Z,11.20
2023-03-31T20:22:14.828Z,11.20
2023-03-31T20:23:47.775Z,11.20
2023-03-31T20:25:20.469Z,11.20
2023-03-31T20:26:53.405Z,11.20
2023-03-31T20:28:26.278Z,11.20
2023-03-31T20:29:58.980Z,11.10
2023-03-31T20:31:33.895Z,11.20
2023-03-31T20:33:06.769Z,11.10
2023-03-31T20:34:39.485Z,11.10
2023-03-31T20:36:15.075Z,11.10
2023-03-31T20:37:48.263Z,11.10
2023-03-31T20:39:21.598Z,11.10
2023-03-31T20:40:54.697Z,11.00
2023-03-31T20:42:27.608Z,11.10
2023-03-31T20:44:01.149Z,11.00
2023-03-31T20:45:33.837Z,11.00
2023-03-31T20:47:07.319Z,11.10
2023-03-31T20:48:41.952Z,11.00
2023-03-31T20:50:15.158Z,11.00
2023-03-31T20:51:49.520Z,11.00